Time,TemperatureF,DewpointF,PressureIn,WindDirection,WindDirectionDegrees,WindSpeedMPH,WindSpeedGustMPH,Humidity,HourlyPrecipIn,Conditions,Clouds,dailyrainin,SoftwareType,DateUTC
2014-01-16 00:00:00,41.4,31.6,29.78,NNW,338,6.0,8.0,68,0.00,,,0.00,meteohub,2014-01-16 05:00:00,
2014-01-16 00:01:00,41.4,31.6,29.78,NNW,338,7.0,10.0,68,0.00,,,0.00,meteohub,2014-01-16 05:01:00,
2014-01-16 00:02:00,41.4,31.6,29.78,North,0,5.0,10.0,68,0.00,,,0.00,meteohub,2014-01-16 05:02:00,
2014-01-16 00:03:00,41.4,31.6,29.78,NW,315,6.0,10.0,68,0.00,,,0.00,meteohub,2014-01-16 05:03:00,
2014-01-16 00:08:00,41.4,32.0,29.78,NNW,338,4.0,10.0,69,0.00,,,0.00,meteohub,2014-01-16 05:08:00,
2014-01-16 00:14:00,41.2,31.1,29.78,NNW,338,7.0,10.0,67,0.00,,,0.00,meteohub,2014-01-16 05:14:00,
2014-01-16 00:19:00,41.2,31.1,29.78,NNW,338,5.0,7.0,67,0.00,,,0.00,meteohub,2014-01-16 05:19:00,
2014-01-16 00:24:00,41.2,31.1,29.78,North,0,5.0,9.0,67,0.00,,,0.00,meteohub,2014-01-16 05:24:00,
2014-01-16 00:29:00,41.0,29.5,29.78,NNW,338,6.0,9.0,63,0.00,,,0.00,meteohub,2014-01-16 05:29:00,
2014-01-16 00:34:00,41.0,30.2,29.78,NNW,338,2.0,12.0,65,0.00,,,0.00,meteohub,2014-01-16 05:34:00,
2014-01-16 00:39:00,41.0,29.5,29.78,NNW,338,5.0,12.0,63,0.00,,,0.00,meteohub,2014-01-16 05:39:00,
2014-01-16 00:45:00,40.8,29.3,29.78,WNW,292,4.0,12.0,63,0.00,,,0.00,meteohub,2014-01-16 05:45:00,
2014-01-16 00:50:00,40.8,28.8,29.78,North,0,9.0,11.0,62,0.00,,,0.00,meteohub,2014-01-16 05:50:00,
2014-01-16 00:55:00,40.6,28.2,29.78,NNW,338,8.0,11.0,61,0.00,,,0.00,meteohub,2014-01-16 05:55:00,
2014-01-16 01:00:00,40.6,28.2,29.78,NNW,338,9.0,11.0,61,0.00,,,0.00,meteohub,2014-01-16 06:00:00,
2014-01-16 01:05:00,40.5,27.7,29.78,NNW,338,11.0,11.0,60,0.00,,,0.00,meteohub,2014-01-16 06:05:00,
2014-01-16 01:10:00,40.5,27.7,29.78,NNE,22,3.0,14.0,60,0.00,,,0.00,meteohub,2014-01-16 06:10:00,
2014-01-16 01:16:00,40.5,27.7,29.78,WNW,292,8.0,14.0,60,0.00,,,0.00,meteohub,2014-01-16 06:16:00,
2014-01-16 01:21:00,40.3,28.4,29.78,NNW,338,10.0,14.0,62,0.00,,,0.00,meteohub,2014-01-16 06:21:00,
2014-01-16 01:26:00,40.1,28.6,29.78,North,0,6.0,13.0,63,0.00,,,0.00,meteohub,2014-01-16 06:26:00,
2014-01-16 01:31:00,39.9,27.7,29.78,NNW,338,6.0,13.0,61,0.00,,,0.00,meteohub,2014-01-16 06:31:00,
2014-01-16 01:36:00,39.9,26.8,29.78,NNW,338,11.0,11.0,59,0.00,,,0.00,meteohub,2014-01-16 06:36:00,
2014-01-16 01:41:00,39.7,26.6,29.78,North,0,4.0,13.0,59,0.00,,,0.00,meteohub,2014-01-16 06:41:00,
2014-01-16 01:46:00,39.7,26.2,29.78,NNE,22,8.0,13.0,58,0.00,,,0.00,meteohub,2014-01-16 06:46:00,
2014-01-16 01:52:00,39.7,26.2,29.78,NNW,338,3.0,11.0,58,0.00,,,0.00,meteohub,2014-01-16 06:52:00,
2014-01-16 01:57:00,39.6,25.7,29.78,NNW,338,11.0,12.0,57,0.00,,,0.00,meteohub,2014-01-16 06:57:00,
2014-01-16 02:02:00,39.6,25.2,29.78,NW,315,3.0,13.0,56,0.00,,,0.00,meteohub,2014-01-16 07:02:00,
2014-01-16 02:07:00,39.6,25.2,29.78,North,0,7.0,13.0,56,0.00,,,0.00,meteohub,2014-01-16 07:07:00,
2014-01-16 02:12:00,39.6,25.7,29.78,NNW,338,4.0,13.0,57,0.00,,,0.00,meteohub,2014-01-16 07:12:00,
2014-01-16 02:17:00,39.4,25.5,29.78,NW,315,4.0,10.0,57,0.00,,,0.00,meteohub,2014-01-16 07:17:00,
2014-01-16 02:22:00,39.4,25.5,29.78,WNW,292,7.0,10.0,57,0.00,,,0.00,meteohub,2014-01-16 07:22:00,
2014-01-16 02:28:00,39.4,25.5,29.78,North,0,4.0,14.0,57,0.00,,,0.00,meteohub,2014-01-16 07:28:00,
2014-01-16 02:33:00,39.2,25.7,29.78,NNW,338,6.0,15.0,58,0.00,,,0.00,meteohub,2014-01-16 07:33:00,
2014-01-16 02:38:00,39.2,25.7,29.78,NNW,338,9.0,15.0,58,0.00,,,0.00,meteohub,2014-01-16 07:38:00,
2014-01-16 02:43:00,39.0,26.4,29.78,WNW,292,6.0,12.0,60,0.00,,,0.00,meteohub,2014-01-16 07:43:00,
2014-01-16 02:48:00,38.8,26.6,29.78,NNW,338,8.0,11.0,61,0.00,,,0.00,meteohub,2014-01-16 07:48:00,
2014-01-16 02:53:00,38.8,26.6,29.78,NNW,338,8.0,10.0,61,0.00,,,0.00,meteohub,2014-01-16 07:53:00,
2014-01-16 02:59:00,38.8,27.0,29.78,NNW,338,3.0,12.0,62,0.00,,,0.00,meteohub,2014-01-16 07:59:00,
2014-01-16 03:04:00,38.7,26.8,29.78,NNW,338,2.0,12.0,62,0.00,,,0.00,meteohub,2014-01-16 08:04:00,
2014-01-16 03:09:00,38.7,26.8,29.78,NNW,338,8.0,12.0,62,0.00,,,0.00,meteohub,2014-01-16 08:09:00,
2014-01-16 03:14:00,38.5,27.0,29.78,WNW,292,6.0,11.0,63,0.00,,,0.00,meteohub,2014-01-16 08:14:00,
2014-01-16 03:19:00,38.5,26.6,29.78,NNW,338,3.0,11.0,62,0.00,,,0.00,meteohub,2014-01-16 08:19:00,
2014-01-16 03:24:00,38.5,27.0,29.78,WNW,292,7.0,12.0,63,0.00,,,0.00,meteohub,2014-01-16 08:24:00,
2014-01-16 03:29:00,38.3,26.8,29.78,WNW,292,6.0,12.0,63,0.00,,,0.00,meteohub,2014-01-16 08:29:00,
2014-01-16 03:35:00,38.3,26.8,29.78,NNW,338,6.0,11.0,63,0.00,,,0.00,meteohub,2014-01-16 08:35:00,
2014-01-16 03:40:00,38.3,26.4,29.78,NW,315,3.0,10.0,62,0.00,,,0.00,meteohub,2014-01-16 08:40:00,
2014-01-16 03:45:00,38.3,26.8,29.78,NNE,22,6.0,10.0,63,0.00,,,0.00,meteohub,2014-01-16 08:45:00,
2014-01-16 03:50:00,38.1,26.6,29.75,NNW,338,6.0,8.0,63,0.00,,,0.00,meteohub,2014-01-16 08:50:00,
2014-01-16 03:55:00,38.1,26.2,29.75,NW,315,4.0,7.0,62,0.00,,,0.00,meteohub,2014-01-16 08:55:00,
2014-01-16 04:00:00,38.1,26.2,29.75,NNW,338,0.0,7.0,62,0.00,,,0.00,meteohub,2014-01-16 09:00:00,
2014-01-16 04:05:00,38.1,26.2,29.78,WNW,292,6.0,7.0,62,0.00,,,0.00,meteohub,2014-01-16 09:05:00,
2014-01-16 04:11:00,38.1,26.6,29.78,NW,315,6.0,9.0,63,0.00,,,0.00,meteohub,2014-01-16 09:11:00,
2014-01-16 04:16:00,37.9,25.7,29.78,WNW,292,9.0,9.0,61,0.00,,,0.00,meteohub,2014-01-16 09:16:00,
2014-01-16 04:21:00,37.9,25.7,29.78,WNW,292,4.0,10.0,61,0.00,,,0.00,meteohub,2014-01-16 09:21:00,
2014-01-16 04:26:00,37.9,25.7,29.78,WNW,292,5.0,10.0,61,0.00,,,0.00,meteohub,2014-01-16 09:26:00,
2014-01-16 04:31:00,37.9,25.3,29.78,WNW,292,6.0,9.0,60,0.00,,,0.00,meteohub,2014-01-16 09:31:00,
2014-01-16 04:36:00,37.8,24.8,29.81,WNW,292,10.0,12.0,59,0.00,,,0.00,meteohub,2014-01-16 09:36:00,
2014-01-16 04:41:00,37.8,24.8,29.81,WNW,292,11.0,12.0,59,0.00,,,0.00,meteohub,2014-01-16 09:41:00,
2014-01-16 04:47:00,37.6,24.3,29.81,NW,315,4.0,12.0,58,0.00,,,0.00,meteohub,2014-01-16 09:47:00,
2014-01-16 04:52:00,37.6,23.7,29.78,WNW,292,9.0,13.0,57,0.00,,,0.00,meteohub,2014-01-16 09:52:00,
2014-01-16 04:57:00,37.6,23.4,29.78,WNW,292,13.0,13.0,56,0.00,,,0.00,meteohub,2014-01-16 09:57:00,
2014-01-16 05:02:00,37.6,23.4,29.78,North,0,8.0,13.0,56,0.00,,,0.00,meteohub,2014-01-16 10:02:00,
2014-01-16 05:07:00,37.4,23.5,29.75,WNW,292,9.0,13.0,57,0.00,,,0.00,meteohub,2014-01-16 10:07:00,
2014-01-16 05:12:00,37.4,23.5,29.75,NNW,338,9.0,13.0,57,0.00,,,0.00,meteohub,2014-01-16 10:12:00,
2014-01-16 05:17:00,37.2,23.9,29.75,NW,315,11.0,13.0,58,0.00,,,0.00,meteohub,2014-01-16 10:17:00,
2014-01-16 05:22:00,37.0,23.2,29.78,NNW,338,5.0,15.0,57,0.00,,,0.00,meteohub,2014-01-16 10:22:00,
2014-01-16 05:27:00,36.9,23.5,29.78,NNW,338,6.0,15.0,58,0.00,,,0.00,meteohub,2014-01-16 10:27:00,
2014-01-16 05:32:00,36.7,23.4,29.75,NNW,338,6.0,15.0,58,0.00,,,0.00,meteohub,2014-01-16 10:32:00,
2014-01-16 05:37:00,36.7,23.7,29.75,NNW,338,9.0,15.0,59,0.00,,,0.00,meteohub,2014-01-16 10:37:00,
2014-01-16 05:43:00,36.5,23.5,29.75,NNW,338,0.0,12.0,59,0.00,,,0.00,meteohub,2014-01-16 10:43:00,
2014-01-16 05:48:00,36.3,23.7,29.78,NNW,338,6.0,11.0,60,0.00,,,0.00,meteohub,2014-01-16 10:48:00,
2014-01-16 05:53:00,36.3,23.4,29.78,NNW,338,3.0,11.0,59,0.00,,,0.00,meteohub,2014-01-16 10:53:00,
2014-01-16 05:58:00,36.3,23.7,29.78,NW,315,4.0,13.0,60,0.00,,,0.00,meteohub,2014-01-16 10:58:00,
2014-01-16 06:03:00,36.1,23.7,29.78,NW,315,6.0,13.0,60,0.00,,,0.00,meteohub,2014-01-16 11:03:00,
2014-01-16 06:08:00,36.1,23.7,29.78,NNW,338,4.0,11.0,60,0.00,,,0.00,meteohub,2014-01-16 11:08:00,
2014-01-16 06:13:00,36.1,24.1,29.78,NW,315,5.0,11.0,61,0.00,,,0.00,meteohub,2014-01-16 11:13:00,
2014-01-16 06:19:00,36.0,24.3,29.78,NW,315,9.0,13.0,62,0.00,,,0.00,meteohub,2014-01-16 11:19:00,
2014-01-16 06:24:00,36.0,24.3,29.78,NW,315,5.0,13.0,62,0.00,,,0.00,meteohub,2014-01-16 11:24:00,
2014-01-16 06:29:00,35.8,24.4,29.78,NNW,338,3.0,13.0,63,0.00,,,0.00,meteohub,2014-01-16 11:29:00,
2014-01-16 06:34:00,35.8,24.8,29.78,WNW,292,7.0,10.0,64,0.00,,,0.00,meteohub,2014-01-16 11:34:00,
2014-01-16 06:39:00,35.8,24.4,29.78,NW,315,4.0,10.0,63,0.00,,,0.00,meteohub,2014-01-16 11:39:00,
2014-01-16 06:44:00,35.6,25.3,29.78,WNW,292,8.0,9.0,66,0.00,,,0.00,meteohub,2014-01-16 11:44:00,
2014-01-16 06:49:00,35.6,25.3,29.78,NNW,338,5.0,8.0,66,0.00,,,0.00,meteohub,2014-01-16 11:49:00,
2014-01-16 06:55:00,35.6,25.3,29.78,NNW,338,6.0,10.0,66,0.00,,,0.00,meteohub,2014-01-16 11:55:00,
2014-01-16 07:00:00,35.6,25.3,29.78,NNW,338,4.0,10.0,66,0.00,,,0.00,meteohub,2014-01-16 12:00:00,
2014-01-16 07:05:00,35.6,25.3,29.78,North,0,8.0,9.0,66,0.00,,,0.00,meteohub,2014-01-16 12:05:00,
2014-01-16 07:10:00,35.6,25.3,29.78,NNW,338,6.0,9.0,66,0.00,,,0.00,meteohub,2014-01-16 12:10:00,
2014-01-16 07:15:00,35.6,25.3,29.78,NNW,338,6.0,9.0,66,0.00,,,0.00,meteohub,2014-01-16 12:15:00,
2014-01-16 07:20:00,35.4,25.5,29.78,NNW,338,2.0,11.0,67,0.00,,,0.00,meteohub,2014-01-16 12:20:00,
2014-01-16 07:25:00,35.4,25.5,29.78,NW,315,9.0,11.0,67,0.00,,,0.00,meteohub,2014-01-16 12:25:00,
2014-01-16 07:31:00,35.4,25.5,29.78,NNW,338,4.0,11.0,67,0.00,,,0.00,meteohub,2014-01-16 12:31:00,
2014-01-16 07:36:00,35.4,25.5,29.78,NNW,338,6.0,9.0,67,0.00,,,0.00,meteohub,2014-01-16 12:36:00,
2014-01-16 07:41:00,35.4,25.5,29.78,NW,315,0.0,8.0,67,0.00,,,0.00,meteohub,2014-01-16 12:41:00,
2014-01-16 07:46:00,35.4,25.5,29.78,NW,315,0.0,8.0,67,0.00,,,0.00,meteohub,2014-01-16 12:46:00,
2014-01-16 07:51:00,35.4,25.5,29.78,NNW,338,0.0,7.0,67,0.00,,,0.00,meteohub,2014-01-16 12:51:00,
2014-01-16 07:56:00,35.6,25.3,29.78,NNW,338,4.0,0.0,66,0.00,,,0.00,meteohub,2014-01-16 12:56:00,
2014-01-16 08:01:00,35.6,25.3,29.78,WNW,292,3.0,6.0,66,0.00,,,0.00,meteohub,2014-01-16 13:01:00,
2014-01-16 08:07:00,35.6,25.3,29.81,NNW,338,0.0,6.0,66,0.00,,,0.00,meteohub,2014-01-16 13:07:00,
2014-01-16 08:12:00,35.6,25.3,29.81,WNW,292,0.0,6.0,66,0.00,,,0.00,meteohub,2014-01-16 13:12:00,
2014-01-16 08:17:00,35.6,25.3,29.81,WNW,292,3.0,7.0,66,0.00,,,0.00,meteohub,2014-01-16 13:17:00,
2014-01-16 08:22:00,35.6,25.0,29.84,NW,315,5.0,11.0,65,0.00,,,0.00,meteohub,2014-01-16 13:22:00,
2014-01-16 08:27:00,35.6,25.3,29.84,NW,315,6.0,11.0,66,0.00,,,0.00,meteohub,2014-01-16 13:27:00,
2014-01-16 08:32:00,35.6,25.7,29.84,WNW,292,4.0,11.0,67,0.00,,,0.00,meteohub,2014-01-16 13:32:00,
2014-01-16 08:37:00,35.6,26.4,29.81,WNW,292,4.0,10.0,69,0.00,,,0.00,meteohub,2014-01-16 13:37:00,
2014-01-16 08:42:00,35.4,26.6,29.81,NW,315,9.0,10.0,70,0.00,,,0.00,meteohub,2014-01-16 13:42:00,
2014-01-16 08:47:00,35.4,26.6,29.81,NW,315,9.0,9.0,70,0.00,,,0.00,meteohub,2014-01-16 13:47:00,
2014-01-16 08:52:00,35.4,26.6,29.84,NW,315,5.0,10.0,70,0.00,,,0.00,meteohub,2014-01-16 13:52:00,
2014-01-16 08:57:00,35.6,26.4,29.84,NW,315,4.0,10.0,69,0.00,,,0.00,meteohub,2014-01-16 13:57:00,
2014-01-16 09:02:00,35.6,26.4,29.84,WNW,292,7.0,10.0,69,0.00,,,0.00,meteohub,2014-01-16 14:02:00,
2014-01-16 09:07:00,35.8,26.2,29.84,WNW,292,6.0,10.0,68,0.00,,,0.00,meteohub,2014-01-16 14:07:00,
2014-01-16 09:13:00,35.8,26.2,29.84,NW,315,5.0,9.0,68,0.00,,,0.00,meteohub,2014-01-16 14:13:00,
2014-01-16 09:18:00,36.0,26.1,29.81,WNW,292,6.0,9.0,67,0.00,,,0.00,meteohub,2014-01-16 14:18:00,
2014-01-16 09:23:00,36.1,26.2,29.81,WNW,292,6.0,10.0,67,0.00,,,0.00,meteohub,2014-01-16 14:23:00,
2014-01-16 09:28:00,36.1,24.8,29.81,West,270,10.0,11.0,63,0.00,,,0.00,meteohub,2014-01-16 14:28:00,
2014-01-16 09:33:00,36.1,24.8,29.87,NNW,338,6.0,13.0,63,0.00,,,0.00,meteohub,2014-01-16 14:33:00,
2014-01-16 09:38:00,36.3,25.3,29.87,WNW,292,4.0,13.0,64,0.00,,,0.00,meteohub,2014-01-16 14:38:00,
2014-01-16 09:43:00,36.3,25.3,29.87,WNW,292,7.0,13.0,64,0.00,,,0.00,meteohub,2014-01-16 14:43:00,
2014-01-16 09:49:00,36.3,24.6,29.87,WNW,292,9.0,12.0,62,0.00,,,0.00,meteohub,2014-01-16 14:49:00,
2014-01-16 09:54:00,36.3,24.6,29.87,WNW,292,10.0,12.0,62,0.00,,,0.00,meteohub,2014-01-16 14:54:00,
2014-01-16 09:59:00,36.5,24.8,29.87,WNW,292,8.0,12.0,62,0.00,,,0.00,meteohub,2014-01-16 14:59:00,
2014-01-16 10:04:00,36.7,25.0,29.84,WNW,292,6.0,11.0,62,0.00,,,0.00,meteohub,2014-01-16 15:04:00,
2014-01-16 10:09:00,36.7,25.3,29.84,NW,315,6.0,10.0,63,0.00,,,0.00,meteohub,2014-01-16 15:09:00,
2014-01-16 10:14:00,36.7,25.0,29.84,NNW,338,6.0,10.0,62,0.00,,,0.00,meteohub,2014-01-16 15:14:00,
2014-01-16 10:19:00,36.7,25.0,29.84,NNW,338,5.0,10.0,62,0.00,,,0.00,meteohub,2014-01-16 15:19:00,
2014-01-16 10:24:00,36.7,25.3,29.84,NW,315,0.0,10.0,63,0.00,,,0.00,meteohub,2014-01-16 15:24:00,
2014-01-16 10:30:00,36.9,25.5,29.84,WNW,292,5.0,10.0,63,0.00,,,0.00,meteohub,2014-01-16 15:30:00,
2014-01-16 10:35:00,37.0,25.3,29.84,NNW,338,4.0,6.0,62,0.00,,,0.00,meteohub,2014-01-16 15:35:00,
2014-01-16 10:40:00,37.0,25.3,29.84,WNW,292,5.0,6.0,62,0.00,,,0.00,meteohub,2014-01-16 15:40:00,
2014-01-16 10:45:00,37.0,25.3,29.84,NW,315,4.0,7.0,62,0.00,,,0.00,meteohub,2014-01-16 15:45:00,
2014-01-16 10:50:00,37.0,24.4,29.84,WNW,292,7.0,7.0,60,0.00,,,0.00,meteohub,2014-01-16 15:50:00,
2014-01-16 10:55:00,37.0,25.3,29.84,West,270,6.0,7.0,62,0.00,,,0.00,meteohub,2014-01-16 15:55:00,
2014-01-16 11:00:00,37.0,25.3,29.84,WNW,292,10.0,10.0,62,0.00,,,0.00,meteohub,2014-01-16 16:00:00,
2014-01-16 11:06:00,36.9,25.9,29.84,WNW,292,11.0,11.0,64,0.00,,,0.00,meteohub,2014-01-16 16:06:00,
2014-01-16 11:11:00,36.3,26.4,29.84,WNW,292,8.0,13.0,67,0.00,,,0.00,meteohub,2014-01-16 16:11:00,
2014-01-16 11:16:00,36.1,27.0,29.84,WNW,292,8.0,13.0,69,0.00,,,0.00,meteohub,2014-01-16 16:16:00,
2014-01-16 11:21:00,36.0,27.5,29.84,WNW,292,4.0,13.0,71,0.00,,,0.00,meteohub,2014-01-16 16:21:00,
2014-01-16 11:26:00,35.6,28.4,29.84,NW,315,4.0,10.0,75,0.00,,,0.00,meteohub,2014-01-16 16:26:00,
2014-01-16 11:31:00,35.6,29.5,29.84,WNW,292,6.0,10.0,78,0.00,,,0.00,meteohub,2014-01-16 16:31:00,
2014-01-16 11:36:00,35.6,29.5,29.78,NNW,338,4.0,10.0,78,0.00,,,0.00,meteohub,2014-01-16 16:36:00,
2014-01-16 11:42:00,35.6,29.8,29.78,WNW,292,0.0,8.0,79,0.00,,,0.00,meteohub,2014-01-16 16:42:00,
2014-01-16 11:47:00,35.6,30.4,29.78,WNW,292,0.0,8.0,81,0.00,,,0.00,meteohub,2014-01-16 16:47:00,
2014-01-16 11:52:00,35.6,30.0,29.81,NW,315,5.0,6.0,80,0.00,,,0.00,meteohub,2014-01-16 16:52:00,
2014-01-16 11:57:00,35.6,30.4,29.81,WNW,292,3.0,9.0,81,0.00,,,0.00,meteohub,2014-01-16 16:57:00,
2014-01-16 12:02:00,35.8,30.2,29.81,North,0,3.0,9.0,80,0.00,,,0.00,meteohub,2014-01-16 17:02:00,
2014-01-16 12:07:00,36.0,31.3,29.78,NW,315,9.0,9.0,83,0.00,,,0.00,meteohub,2014-01-16 17:07:00,
2014-01-16 12:12:00,36.1,31.3,29.78,West,270,6.0,9.0,82,0.00,,,0.00,meteohub,2014-01-16 17:12:00,
2014-01-16 12:17:00,36.1,30.9,29.78,WSW,248,6.0,9.0,81,0.00,,,0.00,meteohub,2014-01-16 17:17:00,
2014-01-16 12:23:00,36.1,30.6,29.78,WNW,292,8.0,9.0,80,0.00,,,0.00,meteohub,2014-01-16 17:23:00,
2014-01-16 12:28:00,36.3,31.1,29.78,WNW,292,3.0,9.0,81,0.00,,,0.00,meteohub,2014-01-16 17:28:00,
2014-01-16 12:33:00,36.3,30.7,29.78,WNW,292,8.0,9.0,80,0.00,,,0.00,meteohub,2014-01-16 17:33:00,
2014-01-16 12:38:00,36.3,30.4,29.78,NW,315,8.0,10.0,79,0.00,,,0.00,meteohub,2014-01-16 17:38:00,
2014-01-16 12:43:00,36.3,30.2,29.78,WNW,292,5.0,11.0,78,0.00,,,0.00,meteohub,2014-01-16 17:43:00,
2014-01-16 12:48:00,36.3,29.8,29.78,WNW,292,10.0,11.0,77,0.00,,,0.00,meteohub,2014-01-16 17:48:00,
2014-01-16 12:53:00,36.3,29.8,29.78,WNW,292,8.0,11.0,77,0.00,,,0.00,meteohub,2014-01-16 17:53:00,
2014-01-16 12:58:00,36.5,29.7,29.78,WNW,292,8.0,11.0,76,0.00,,,0.00,meteohub,2014-01-16 17:58:00,
2014-01-16 13:04:00,36.7,29.8,29.78,WNW,292,6.0,11.0,76,0.00,,,0.00,meteohub,2014-01-16 18:04:00,
2014-01-16 13:09:00,36.7,28.9,29.78,NW,315,10.0,10.0,73,0.00,,,0.00,meteohub,2014-01-16 18:09:00,
2014-01-16 13:14:00,36.7,28.2,29.78,WNW,292,4.0,13.0,71,0.00,,,0.00,meteohub,2014-01-16 18:14:00,
2014-01-16 13:19:00,36.9,28.4,29.78,NNW,338,5.0,13.0,71,0.00,,,0.00,meteohub,2014-01-16 18:19:00,
2014-01-16 13:24:00,37.0,28.9,29.78,WNW,292,4.0,13.0,72,0.00,,,0.00,meteohub,2014-01-16 18:24:00,
2014-01-16 13:29:00,37.2,28.4,29.78,WNW,292,8.0,11.0,70,0.00,,,0.00,meteohub,2014-01-16 18:29:00,
2014-01-16 13:34:00,37.4,28.2,29.75,WNW,292,4.0,9.0,69,0.00,,,0.00,meteohub,2014-01-16 18:34:00,
2014-01-16 13:40:00,37.8,29.3,29.75,NW,315,3.0,9.0,71,0.00,,,0.00,meteohub,2014-01-16 18:40:00,
2014-01-16 13:45:00,37.9,28.4,29.75,North,0,6.0,9.0,68,0.00,,,0.00,meteohub,2014-01-16 18:45:00,
2014-01-16 13:50:00,38.1,28.2,29.72,NNW,338,0.0,9.0,67,0.00,,,0.00,meteohub,2014-01-16 18:50:00,
2014-01-16 13:55:00,38.1,27.5,29.72,NW,315,6.0,11.0,65,0.00,,,0.00,meteohub,2014-01-16 18:55:00,
2014-01-16 14:00:00,38.1,27.1,29.72,NNW,338,4.0,11.0,64,0.00,,,0.00,meteohub,2014-01-16 19:00:00,
2014-01-16 14:05:00,38.3,26.4,29.75,NNW,338,5.0,9.0,62,0.00,,,0.00,meteohub,2014-01-16 19:05:00,
2014-01-16 14:10:00,38.1,25.2,29.75,North,0,2.0,9.0,59,0.00,,,0.00,meteohub,2014-01-16 19:10:00,
2014-01-16 14:16:00,38.3,26.1,29.75,NW,315,0.0,7.0,61,0.00,,,0.00,meteohub,2014-01-16 19:16:00,
2014-01-16 14:21:00,38.1,23.0,29.78,West,270,0.0,6.0,54,0.00,,,0.00,meteohub,2014-01-16 19:21:00,
2014-01-16 14:26:00,38.3,24.4,29.78,WNW,292,0.0,3.0,57,0.00,,,0.00,meteohub,2014-01-16 19:26:00,
2014-01-16 14:31:00,38.3,23.5,29.78,WNW,292,0.0,0.0,55,0.00,,,0.00,meteohub,2014-01-16 19:31:00,
2014-01-16 14:36:00,38.5,24.6,29.78,WNW,292,0.0,8.0,57,0.00,,,0.00,meteohub,2014-01-16 19:36:00,
2014-01-16 14:41:00,38.8,25.0,29.78,WNW,292,0.0,8.0,57,0.00,,,0.00,meteohub,2014-01-16 19:41:00,
2014-01-16 14:46:00,38.8,25.0,29.78,NW,315,0.0,8.0,57,0.00,,,0.00,meteohub,2014-01-16 19:46:00,
2014-01-16 14:52:00,38.8,25.0,29.75,WNW,292,0.0,4.0,57,0.00,,,0.00,meteohub,2014-01-16 19:52:00,
2014-01-16 14:57:00,38.8,24.1,29.75,NNW,338,4.0,6.0,55,0.00,,,0.00,meteohub,2014-01-16 19:57:00,
2014-01-16 15:02:00,38.7,23.5,29.75,WNW,292,4.0,6.0,54,0.00,,,0.00,meteohub,2014-01-16 20:02:00,
2014-01-16 15:07:00,38.7,23.0,29.78,North,0,0.0,9.0,53,0.00,,,0.00,meteohub,2014-01-16 20:07:00,
2014-01-16 15:12:00,38.7,23.5,29.78,NNW,338,5.0,9.0,54,0.00,,,0.00,meteohub,2014-01-16 20:12:00,
2014-01-16 15:17:00,38.5,22.5,29.78,NNW,338,0.0,9.0,52,0.00,,,0.00,meteohub,2014-01-16 20:17:00,
2014-01-16 15:22:00,38.5,22.8,29.78,NNW,338,0.0,6.0,53,0.00,,,0.00,meteohub,2014-01-16 20:22:00,
2014-01-16 15:28:00,38.3,22.6,29.78,NNE,22,0.0,6.0,53,0.00,,,0.00,meteohub,2014-01-16 20:28:00,
2014-01-16 15:33:00,38.3,23.2,29.78,NNW,338,0.0,0.0,54,0.00,,,0.00,meteohub,2014-01-16 20:33:00,
2014-01-16 15:38:00,38.3,23.2,29.78,NNW,338,5.0,0.0,54,0.00,,,0.00,meteohub,2014-01-16 20:38:00,
2014-01-16 15:43:00,38.3,23.2,29.78,NW,315,0.0,5.0,54,0.00,,,0.00,meteohub,2014-01-16 20:43:00,
2014-01-16 15:48:00,38.3,22.6,29.78,WNW,292,0.0,5.0,53,0.00,,,0.00,meteohub,2014-01-16 20:48:00,
2014-01-16 15:53:00,38.1,22.1,29.78,WNW,292,0.0,5.0,52,0.00,,,0.00,meteohub,2014-01-16 20:53:00,
2014-01-16 15:58:00,38.3,22.6,29.78,NW,315,0.0,6.0,53,0.00,,,0.00,meteohub,2014-01-16 20:58:00,
2014-01-16 16:04:00,38.1,23.0,29.78,West,270,0.0,6.0,54,0.00,,,0.00,meteohub,2014-01-16 21:04:00,
2014-01-16 16:09:00,38.1,22.5,29.78,NW,315,0.0,5.0,53,0.00,,,0.00,meteohub,2014-01-16 21:09:00,
2014-01-16 16:14:00,38.1,21.6,29.78,WSW,248,0.0,5.0,51,0.00,,,0.00,meteohub,2014-01-16 21:14:00,
2014-01-16 16:19:00,38.1,22.1,29.78,West,270,0.0,0.0,52,0.00,,,0.00,meteohub,2014-01-16 21:19:00,
2014-01-16 16:24:00,38.1,22.1,29.78,SW,225,0.0,0.0,52,0.00,,,0.00,meteohub,2014-01-16 21:24:00,
2014-01-16 16:29:00,37.9,21.6,29.78,SW,225,0.0,0.0,51,0.00,,,0.00,meteohub,2014-01-16 21:29:00,
2014-01-16 16:34:00,38.1,22.1,29.78,WSW,248,0.0,0.0,52,0.00,,,0.00,meteohub,2014-01-16 21:34:00,
2014-01-16 16:39:00,38.1,22.1,29.78,WSW,248,0.0,0.0,52,0.00,,,0.00,meteohub,2014-01-16 21:39:00,
2014-01-16 16:45:00,37.9,22.5,29.78,WNW,292,2.0,0.0,53,0.00,,,0.00,meteohub,2014-01-16 21:45:00,
2014-01-16 16:50:00,37.9,22.5,29.78,NW,315,0.0,0.0,53,0.00,,,0.00,meteohub,2014-01-16 21:50:00,
2014-01-16 16:55:00,37.8,21.7,29.78,West,270,0.0,2.0,52,0.00,,,0.00,meteohub,2014-01-16 21:55:00,
2014-01-16 17:00:00,37.4,21.4,29.78,WNW,292,0.0,2.0,52,0.00,,,0.00,meteohub,2014-01-16 22:00:00,
2014-01-16 17:05:00,37.2,21.7,29.75,WNW,292,0.0,2.0,53,0.00,,,0.00,meteohub,2014-01-16 22:05:00,
2014-01-16 17:10:00,36.9,20.8,29.75,West,270,0.0,0.0,52,0.00,,,0.00,meteohub,2014-01-16 22:10:00,
2014-01-16 17:16:00,36.7,20.8,29.75,West,270,0.0,0.0,52,0.00,,,0.00,meteohub,2014-01-16 22:16:00,
2014-01-16 17:21:00,36.3,20.5,29.78,WNW,292,0.0,0.0,52,0.00,,,0.00,meteohub,2014-01-16 22:21:00,
2014-01-16 17:26:00,36.0,20.1,29.78,WNW,292,0.0,0.0,52,0.00,,,0.00,meteohub,2014-01-16 22:26:00,
2014-01-16 17:31:00,35.8,20.3,29.78,West,270,0.0,0.0,53,0.00,,,0.00,meteohub,2014-01-16 22:31:00,
2014-01-16 17:36:00,35.4,20.1,29.78,WNW,292,0.0,0.0,53,0.00,,,0.00,meteohub,2014-01-16 22:36:00,
2014-01-16 17:41:00,35.1,20.1,29.78,West,270,0.0,0.0,54,0.00,,,0.00,meteohub,2014-01-16 22:41:00,
2014-01-16 17:46:00,34.7,19.8,29.78,West,270,0.0,0.0,54,0.00,,,0.00,meteohub,2014-01-16 22:46:00,
2014-01-16 17:51:00,34.5,19.6,29.78,West,270,0.0,0.0,54,0.00,,,0.00,meteohub,2014-01-16 22:51:00,
2014-01-16 17:57:00,34.3,19.9,29.78,West,270,0.0,0.0,55,0.00,,,0.00,meteohub,2014-01-16 22:57:00,
2014-01-16 18:02:00,34.0,19.6,29.78,WNW,292,0.0,0.0,55,0.00,,,0.00,meteohub,2014-01-16 23:02:00,
2014-01-16 18:07:00,33.6,19.6,29.78,West,270,0.0,0.0,56,0.00,,,0.00,meteohub,2014-01-16 23:07:00,
2014-01-16 18:12:00,33.4,19.4,29.78,SW,225,0.0,0.0,56,0.00,,,0.00,meteohub,2014-01-16 23:12:00,
2014-01-16 18:17:00,33.1,19.6,29.78,SE,135,0.0,0.0,57,0.00,,,0.00,meteohub,2014-01-16 23:17:00,
2014-01-16 18:22:00,32.9,19.8,29.78,SE,135,0.0,0.0,58,0.00,,,0.00,meteohub,2014-01-16 23:22:00,
2014-01-16 18:27:00,32.9,20.1,29.78,SSE,158,0.0,0.0,59,0.00,,,0.00,meteohub,2014-01-16 23:27:00,
2014-01-16 18:32:00,32.7,20.5,29.78,SSE,158,0.0,0.0,60,0.00,,,0.00,meteohub,2014-01-16 23:32:00,
2014-01-16 18:37:00,32.7,20.8,29.78,South,180,0.0,0.0,61,0.00,,,0.00,meteohub,2014-01-16 23:37:00,
2014-01-16 18:43:00,32.5,20.7,29.78,SW,225,0.0,0.0,61,0.00,,,0.00,meteohub,2014-01-16 23:43:00,
2014-01-16 18:48:00,32.7,21.6,29.81,WSW,248,0.0,0.0,63,0.00,,,0.00,meteohub,2014-01-16 23:48:00,
2014-01-16 18:53:00,32.7,21.9,29.81,SW,225,0.0,0.0,64,0.00,,,0.00,meteohub,2014-01-16 23:53:00,
2014-01-16 18:58:00,32.7,21.9,29.81,SW,225,0.0,0.0,64,0.00,,,0.00,meteohub,2014-01-16 23:58:00,
2014-01-16 19:03:00,32.7,21.9,29.81,SW,225,0.0,0.0,64,0.00,,,0.00,meteohub,2014-01-17 00:03:00,
2014-01-16 19:08:00,32.9,22.5,29.81,SW,225,0.0,0.0,65,0.00,,,0.00,meteohub,2014-01-17 00:08:00,
2014-01-16 19:13:00,33.1,21.6,29.81,SW,225,0.0,0.0,62,0.00,,,0.00,meteohub,2014-01-17 00:13:00,
2014-01-16 19:19:00,33.3,21.7,29.81,SW,225,2.0,0.0,62,0.00,,,0.00,meteohub,2014-01-17 00:19:00,
2014-01-16 19:24:00,33.3,21.7,29.81,WSW,248,0.0,0.0,62,0.00,,,0.00,meteohub,2014-01-17 00:24:00,
2014-01-16 19:29:00,33.4,21.9,29.81,SW,225,0.0,2.0,62,0.00,,,0.00,meteohub,2014-01-17 00:29:00,
2014-01-16 19:34:00,33.6,21.6,29.81,WSW,248,4.0,4.0,61,0.00,,,0.00,meteohub,2014-01-17 00:34:00,
2014-01-16 19:39:00,33.6,20.8,29.81,SW,225,0.0,4.0,59,0.00,,,0.00,meteohub,2014-01-17 00:39:00,
2014-01-16 19:44:00,33.6,20.8,29.81,WSW,248,3.0,5.0,59,0.00,,,0.00,meteohub,2014-01-17 00:44:00,
2014-01-16 19:49:00,33.6,20.5,29.84,WSW,248,0.0,5.0,58,0.00,,,0.00,meteohub,2014-01-17 00:49:00,
2014-01-16 19:55:00,33.6,20.5,29.84,WSW,248,0.0,5.0,58,0.00,,,0.00,meteohub,2014-01-17 00:55:00,
2014-01-16 20:00:00,33.4,20.3,29.84,WSW,248,0.0,4.0,58,0.00,,,0.00,meteohub,2014-01-17 01:00:00,
2014-01-16 20:05:00,33.3,20.1,29.84,WSW,248,0.0,0.0,58,0.00,,,0.00,meteohub,2014-01-17 01:05:00,
2014-01-16 20:10:00,33.3,20.1,29.84,WSW,248,0.0,0.0,58,0.00,,,0.00,meteohub,2014-01-17 01:10:00,
2014-01-16 20:15:00,33.1,19.9,29.84,WSW,248,0.0,0.0,58,0.00,,,0.00,meteohub,2014-01-17 01:15:00,
2014-01-16 20:20:00,33.1,19.9,29.84,West,270,0.0,0.0,58,0.00,,,0.00,meteohub,2014-01-17 01:20:00,
2014-01-16 20:26:00,32.7,19.6,29.84,WSW,248,0.0,0.0,58,0.00,,,0.00,meteohub,2014-01-17 01:26:00,
2014-01-16 20:31:00,32.5,19.4,29.84,WSW,248,4.0,0.0,58,0.00,,,0.00,meteohub,2014-01-17 01:31:00,
2014-01-16 20:36:00,32.4,19.2,29.84,West,270,0.0,5.0,58,0.00,,,0.00,meteohub,2014-01-17 01:36:00,
2014-01-16 20:41:00,32.2,19.0,29.84,WSW,248,0.0,5.0,58,0.00,,,0.00,meteohub,2014-01-17 01:41:00,
2014-01-16 20:46:00,32.0,18.9,29.84,WSW,248,0.0,5.0,58,0.00,,,0.00,meteohub,2014-01-17 01:46:00,
2014-01-16 20:51:00,31.8,18.7,29.84,WSW,248,0.0,4.0,58,0.00,,,0.00,meteohub,2014-01-17 01:51:00,
2014-01-16 20:56:00,31.6,18.5,29.84,WSW,248,0.0,3.0,58,0.00,,,0.00,meteohub,2014-01-17 01:56:00,
2014-01-16 21:02:00,31.5,18.5,29.84,WSW,248,0.0,3.0,58,0.00,,,0.00,meteohub,2014-01-17 02:02:00,
2014-01-16 21:07:00,31.3,18.3,29.84,WSW,248,0.0,3.0,58,0.00,,,0.00,meteohub,2014-01-17 02:07:00,
2014-01-16 21:12:00,31.1,17.6,29.84,WSW,248,0.0,0.0,57,0.00,,,0.00,meteohub,2014-01-17 02:12:00,
2014-01-16 21:17:00,31.1,18.1,29.84,WSW,248,0.0,0.0,58,0.00,,,0.00,meteohub,2014-01-17 02:17:00,
2014-01-16 21:22:00,30.9,18.0,29.84,WSW,248,5.0,0.0,58,0.00,,,0.00,meteohub,2014-01-17 02:22:00,
2014-01-16 21:27:00,30.7,17.8,29.84,WSW,248,0.0,5.0,58,0.00,,,0.00,meteohub,2014-01-17 02:27:00,
2014-01-16 21:32:00,30.6,17.6,29.84,WSW,248,3.0,5.0,58,0.00,,,0.00,meteohub,2014-01-17 02:32:00,
2014-01-16 21:38:00,30.4,17.4,29.84,WSW,248,0.0,6.0,58,0.00,,,0.00,meteohub,2014-01-17 02:38:00,
2014-01-16 21:43:00,30.4,17.4,29.84,WSW,248,0.0,6.0,58,0.00,,,0.00,meteohub,2014-01-17 02:43:00,
2014-01-16 21:48:00,30.2,17.6,29.84,WSW,248,0.0,5.0,59,0.00,,,0.00,meteohub,2014-01-17 02:48:00,
2014-01-16 21:53:00,30.2,17.6,29.84,WSW,248,0.0,0.0,59,0.00,,,0.00,meteohub,2014-01-17 02:53:00,
2014-01-16 21:58:00,30.2,17.6,29.84,SW,225,0.0,0.0,59,0.00,,,0.00,meteohub,2014-01-17 02:58:00,
2014-01-16 22:03:00,30.0,17.8,29.84,WSW,248,0.0,0.0,60,0.00,,,0.00,meteohub,2014-01-17 03:03:00,
2014-01-16 22:08:00,29.8,17.6,29.84,WSW,248,0.0,0.0,60,0.00,,,0.00,meteohub,2014-01-17 03:08:00,
2014-01-16 22:14:00,29.7,17.4,29.84,WSW,248,0.0,0.0,60,0.00,,,0.00,meteohub,2014-01-17 03:14:00,
2014-01-16 22:19:00,29.5,17.4,29.84,WSW,248,0.0,0.0,60,0.00,,,0.00,meteohub,2014-01-17 03:19:00,
2014-01-16 22:24:00,29.5,17.4,29.84,WSW,248,0.0,0.0,60,0.00,,,0.00,meteohub,2014-01-17 03:24:00,
2014-01-16 22:29:00,29.3,17.2,29.84,SW,225,0.0,0.0,60,0.00,,,0.00,meteohub,2014-01-17 03:29:00,
2014-01-16 22:34:00,29.1,17.4,29.84,SW,225,0.0,0.0,61,0.00,,,0.00,meteohub,2014-01-17 03:34:00,
2014-01-16 22:39:00,28.9,17.2,29.84,WSW,248,1.0,0.0,61,0.00,,,0.00,meteohub,2014-01-17 03:39:00,
2014-01-16 22:45:00,28.8,17.8,29.84,SW,225,0.0,0.0,63,0.00,,,0.00,meteohub,2014-01-17 03:45:00,
2014-01-16 22:50:00,28.6,17.6,29.84,WSW,248,0.0,3.0,63,0.00,,,0.00,meteohub,2014-01-17 03:50:00,
2014-01-16 22:55:00,28.6,17.6,29.84,WSW,248,0.0,3.0,63,0.00,,,0.00,meteohub,2014-01-17 03:55:00,
2014-01-16 23:01:00,28.4,17.4,29.84,WSW,248,0.0,0.0,63,0.00,,,0.00,meteohub,2014-01-17 04:01:00,
2014-01-16 23:06:00,28.2,17.2,29.84,SW,225,0.0,0.0,63,0.00,,,0.00,meteohub,2014-01-17 04:06:00,
2014-01-16 23:11:00,28.0,17.1,29.84,SSW,202,0.0,0.0,63,0.00,,,0.00,meteohub,2014-01-17 04:11:00,
2014-01-16 23:16:00,27.9,17.2,29.84,SW,225,0.0,2.0,64,0.00,,,0.00,meteohub,2014-01-17 04:16:00,
2014-01-16 23:21:00,27.9,17.2,29.84,SW,225,0.0,2.0,64,0.00,,,0.00,meteohub,2014-01-17 04:21:00,
2014-01-16 23:26:00,27.9,17.6,29.84,SW,225,0.0,2.0,65,0.00,,,0.00,meteohub,2014-01-17 04:26:00,
2014-01-16 23:32:00,27.5,18.3,29.84,SW,225,0.0,0.0,68,0.00,,,0.00,meteohub,2014-01-17 04:32:00,
2014-01-16 23:37:00,27.5,18.0,29.84,WSW,248,0.0,0.0,67,0.00,,,0.00,meteohub,2014-01-17 04:37:00,
2014-01-16 23:42:00,27.5,18.0,29.84,WSW,248,0.0,0.0,67,0.00,,,0.00,meteohub,2014-01-17 04:42:00,
2014-01-16 23:47:00,27.5,18.0,29.84,WSW,248,0.0,0.0,67,0.00,,,0.00,meteohub,2014-01-17 04:47:00,
2014-01-16 23:52:00,27.3,17.8,29.84,SW,225,0.0,0.0,67,0.00,,,0.00,meteohub,2014-01-17 04:52:00,
2014-01-16 23:57:00,27.7,18.1,29.84,SW,225,0.0,0.0,67,0.00,,,0.00,meteohub,2014-01-17 04:57:00,